Time;durP1;ratioP1;P1;durP2;ratioP2;P2;SDS_P1;SDS_P2;PMS_P1;PMS_P2;Temp;Humidity;BMP_temperature;BMP_pressure;BME280_temperature;BME280_humidity;BME280_pressure;Samples;Min_cycle;Max_cycle;Signal;HPM_P1;HPM_P2
2022/10/03 00:01:52;;;;;;;16.23;1.52;;;11.80;99.90;;;10.41;100.00;101117.59;4980159;28;20035;-83
2022/10/03 00:05:08;;;;;;;11.77;2.05;;;11.70;99.90;;;10.31;100.00;101124.16;4959187;28;20075;-81
2022/10/03 00:07:58;;;;;;;25.33;2.47;;;11.60;99.90;;;10.30;100.00;101132.94;4922000;29;20111;-85
2022/10/03 00:10:46;;;;;;;20.08;2.45;;;11.60;99.90;;;10.25;100.00;101132.25;4960781;28;20069;-84
2022/10/03 00:13:39;;;;;;;11.63;1.80;;;11.50;99.90;;;10.20;100.00;101134.22;4983188;28;20031;-85
2022/10/03 00:16:07;;;;;;;12.60;1.95;;;11.50;99.90;;;10.18;100.00;101149.19;4959978;28;20058;-87
2022/10/03 00:19:18;;;;;;;17.13;2.13;;;11.40;99.90;;;10.13;100.00;101144.13;4963991;28;20031;-83
2022/10/03 00:22:17;;;;;;;10.77;1.70;;;11.40;99.90;;;10.11;100.00;101147.69;4962972;28;21204;-84
2022/10/03 00:25:01;;;;;;;14.77;1.77;;;11.40;99.90;;;10.08;100.00;101148.66;4944785;28;20050;-82
2022/10/03 00:27:46;;;;;;;13.43;1.80;;;11.40;99.90;;;10.01;100.00;101145.41;4965841;28;20034;-83
2022/10/03 00:30:24;;;;;;;15.20;2.50;;;11.30;99.90;;;9.95;100.00;101143.00;4944986;28;20030;-82
2022/10/03 00:33:17;;;;;;;17.27;2.25;;;11.30;99.90;;;9.96;100.00;101150.00;4966078;28;20036;-82
2022/10/03 00:35:55;;;;;;;14.82;1.90;;;11.30;99.90;;;9.91;100.00;101151.06;4980127;28;20719;-84
2022/10/03 00:38:43;;;;;;;16.73;1.85;;;11.20;99.90;;;9.93;100.00;101154.50;4964727;28;20042;-84
2022/10/03 00:42:03;;;;;;;19.23;2.22;;;11.20;99.90;;;9.90;100.00;101160.75;4980295;28;20031;-84
2022/10/03 00:45:09;;;;;;;15.18;2.03;;;11.20;99.90;;;9.91;100.00;101159.81;4936242;28;20042;-82
2022/10/03 00:48:05;;;;;;;8.65;1.40;;;11.20;99.90;;;9.97;100.00;101162.22;4961929;28;20095;-85
2022/10/03 00:51:23;;;;;;;13.45;1.50;;;11.30;99.90;;;9.99;100.00;101163.03;4960701;28;20050;-83
2022/10/03 00:54:39;;;;;;;14.82;1.50;;;11.20;99.90;;;9.97;100.00;101162.22;4959534;28;20034;-82
2022/10/03 00:57:39;;;;;;;20.08;2.35;;;11.30;99.90;;;10.00;100.00;101161.25;4965615;28;20031;-85
2022/10/03 01:00:19;;;;;;;17.15;2.28;;;11.30;99.90;;;10.09;100.00;101166.19;4973106;28;20161;-87
2022/10/03 01:03:26;;;;;;;22.30;2.30;;;11.40;99.90;;;10.20;100.00;101171.06;4974957;28;20007;-85
2022/10/03 01:06:25;;;;;;;18.05;1.88;;;11.50;99.90;;;10.24;100.00;101165.59;4964689;28;20043;-85
2022/10/03 01:09:33;;;;;;;12.82;1.45;;;11.50;99.90;;;10.28;100.00;101166.34;4963300;28;20031;-84
2022/10/03 01:12:22;;;;;;;25.40;2.38;;;11.50;99.90;;;10.26;100.00;101174.31;4959559;28;20408;-82
2022/10/03 01:15:06;;;;;;;19.45;2.47;;;11.50;99.90;;;10.23;100.00;101176.19;4958072;29;20086;-83
2022/10/03 01:18:02;;;;;;;15.55;2.15;;;11.50;99.90;;;10.15;100.00;101176.50;4976438;28;20027;-85
2022/10/03 01:20:55;;;;;;;24.52;2.60;;;11.50;99.90;;;10.09;100.00;101176.72;4941122;28;20054;-83
2022/10/03 01:24:01;;;;;;;14.90;1.65;;;11.40;99.90;;;10.03;100.00;101176.94;4958884;28;20068;-84
2022/10/03 01:27:19;;;;;;;23.88;2.53;;;11.40;99.90;;;10.01;100.00;101178.78;4976995;28;20034;-85
2022/10/03 01:33:10;;;;;;;19.02;2.13;;;11.30;99.90;;;9.99;100.00;101186.72;4963625;28;20432;-84
2022/10/03 01:36:11;;;;;;;19.13;1.98;;;11.30;99.90;;;10.04;100.00;101184.78;4957341;28;20080;-83
2022/10/03 01:38:49;;;;;;;13.65;1.75;;;11.40;99.90;;;10.09;100.00;101187.25;4975506;28;20087;-83
2022/10/03 01:41:31;;;;;;;15.35;1.98;;;11.40;99.90;;;10.15;100.00;101191.41;4958153;28;21444;-84
2022/10/03 01:44:23;;;;;;;12.07;1.77;;;11.40;99.90;;;10.14;100.00;101192.31;4960306;28;20045;-81
2022/10/03 01:47:21;;;;;;;29.48;2.50;;;11.40;99.90;;;10.16;100.00;101186.09;4965523;28;20031;-82
2022/10/03 01:50:20;;;;;;;16.05;2.03;;;11.40;99.90;;;10.21;100.00;101191.16;4957479;28;20031;-82
2022/10/03 01:53:18;;;;;;;16.08;2.33;;;11.50;99.90;;;10.27;100.00;101191.78;4958695;28;20035;-84
2022/10/03 01:56:01;;;;;;;19.80;2.53;;;11.60;99.90;;;10.38;100.00;101199.31;4958419;28;20054;-83
2022/10/03 01:58:57;;;;;;;11.95;1.52;;;11.70;99.90;;;10.45;100.00;101200.81;4974870;28;20715;-82
2022/10/03 02:02:16;;;;;;;23.58;2.42;;;11.70;99.90;;;10.54;100.00;101201.34;4935903;29;20125;-83
2022/10/03 02:04:58;;;;;;;19.20;2.42;;;11.80;99.90;;;10.58;100.00;101201.19;4923269;29;20043;-84
2022/10/03 02:07:46;;;;;;;18.17;2.30;;;11.90;99.90;;;10.62;100.00;101202.78;4922898;29;20348;-84
2022/10/03 02:10:54;;;;;;;17.73;2.78;;;11.90;99.90;;;10.64;100.00;101208.00;4923015;28;20099;-84
2022/10/03 02:13:59;;;;;;;15.68;2.33;;;11.90;99.90;;;10.65;100.00;101207.09;4924076;28;20054;-83
2022/10/03 02:16:43;;;;;;;18.48;2.58;;;11.90;99.90;;;10.68;100.00;101214.84;4961957;28;20404;-85
2022/10/03 02:19:41;;;;;;;24.30;2.50;;;12.00;99.90;;;10.74;100.00;101222.53;4976104;28;20031;-84
2022/10/03 02:22:45;;;;;;;21.25;2.50;;;12.00;99.90;;;10.65;100.00;101215.00;4941349;29;20518;-86
2022/10/03 02:26:07;;;;;;;19.77;2.55;;;11.90;99.90;;;10.59;100.00;101218.69;4956302;29;20035;-86
2022/10/03 02:28:54;;;;;;;15.32;2.05;;;11.90;99.90;;;10.58;100.00;101218.75;4959144;28;20499;-87
2022/10/03 02:31:57;;;;;;;23.98;3.15;;;11.80;99.90;;;10.52;100.00;101225.13;4973876;28;20064;-85
2022/10/03 02:34:51;;;;;;;28.02;3.70;;;11.90;99.90;;;10.57;100.00;101224.94;4956762;29;20106;-85
2022/10/03 02:37:46;;;;;;;22.58;2.67;;;11.90;99.90;;;10.63;100.00;101225.56;4966069;28;20027;-85
2022/10/03 02:40:41;;;;;;;24.02;3.20;;;11.90;99.90;;;10.63;100.00;101233.47;4957610;29;20031;-86
2022/10/03 02:43:43;;;;;;;16.20;2.40;;;11.90;99.90;;;10.68;100.00;101238.56;4974626;28;20024;-85
2022/10/03 02:46:34;;;;;;;22.65;3.42;;;12.00;99.90;;;10.71;100.00;101238.41;4983464;28;20041;-84
2022/10/03 02:49:41;;;;;;;26.77;3.05;;;;;;;10.76;100.00;101238.28;4966447;28;20027;-86
2022/10/03 02:52:46;;;;;;;23.83;2.13;;;12.00;99.90;;;10.74;100.00;101243.59;4956615;28;20109;-86
2022/10/03 02:55:50;;;;;;;23.98;3.33;;;12.00;99.90;;;10.73;100.00;101241.84;4965050;28;20285;-87
2022/10/03 02:59:13;;;;;;;17.85;2.33;;;12.00;99.90;;;10.73;100.00;101246.28;4960682;28;20058;-86
2022/10/03 03:02:17;;;;;;;22.30;2.90;;;12.00;99.90;;;10.74;100.00;101248.00;4960042;28;20400;-85
2022/10/03 03:05:30;;;;;;;21.60;2.53;;;12.00;99.90;;;10.71;100.00;101254.22;4914448;28;20147;-86
2022/10/03 03:08:56;;;;;;;24.05;2.75;;;12.00;99.90;;;10.72;100.00;101255.97;4974125;28;20122;-84
2022/10/03 03:11:49;;;;;;;22.88;2.40;;;12.00;99.90;;;10.71;100.00;101263.91;4957345;28;20059;-86
2022/10/03 03:15:23;;;;;;;24.95;2.40;;;12.00;99.90;;;10.72;100.00;101265.66;4961142;28;20035;-85
2022/10/03 03:18:19;;;;;;;26.55;3.60;;;12.00;99.90;;;10.75;100.00;101271.63;4947725;29;20071;-85
2022/10/03 03:21:02;;;;;;;19.30;2.83;;;12.00;99.90;;;10.76;100.00;101278.63;4951555;28;20051;-86
2022/10/03 03:23:36;;;;;;;25.45;3.15;;;12.00;99.90;;;10.78;100.00;101278.59;4957825;28;20049;-84
2022/10/03 03:26:24;;;;;;;27.30;2.95;;;12.10;99.90;;;10.83;100.00;101281.88;4964872;28;20684;-87
2022/10/03 03:29:54;;;;;;;26.70;3.35;;;12.10;99.90;;;10.84;100.00;101284.47;4957438;28;20114;-85
2022/10/03 03:32:39;;;;;;;21.33;2.67;;;12.10;99.90;;;10.79;100.00;101293.47;4957279;28;20023;-84
2022/10/03 03:35:56;;;;;;;13.98;1.95;;;12.00;99.90;;;10.62;100.00;101283.56;4966917;28;20023;-88
2022/10/03 03:38:55;;;;;;;31.30;4.38;;;11.90;99.90;;;10.52;100.00;101285.69;4957975;28;20031;-87
2022/10/03 03:42:05;;;;;;;13.43;1.95;;;11.80;99.90;;;10.43;100.00;101286.91;4956410;28;20047;-84
2022/10/03 03:45:01;;;;;;;26.30;2.97;;;11.80;99.90;;;10.41;100.00;101291.34;4957971;28;20031;-83
2022/10/03 03:47:42;;;;;;;19.50;2.60;;;11.70;99.90;;;10.46;100.00;101296.44;4941650;28;20033;-84
2022/10/03 03:50:58;;;;;;;23.90;3.17;;;11.80;99.90;;;10.56;100.00;101304.84;4957823;28;20019;-84
2022/10/03 03:53:45;;;;;;;19.55;2.47;;;11.80;99.90;;;10.60;100.00;101303.81;4971355;28;20036;-85
2022/10/03 03:56:42;;;;;;;;;;;11.90;99.90;;;10.58;100.00;101311.81;4969530;28;20024;-84
2022/10/03 03:59:48;;;;;;;15.32;1.80;;;11.90;99.90;;;10.53;100.00;101302.34;4958731;28;19910;-85
2022/10/03 04:02:26;;;;;;;23.95;3.15;;;11.80;99.90;;;10.54;100.00;101306.69;4959841;28;20031;-85
2022/10/03 04:05:34;;;;;;;20.20;2.10;;;11.80;99.90;;;10.53;100.00;101316.38;4959058;28;20043;-86
2022/10/03 04:09:00;;;;;;;17.80;2.33;;;11.80;99.90;;;10.54;100.00;101322.47;4959407;28;20050;-83
2022/10/03 04:12:10;;;;;;;20.77;3.28;;;11.90;99.90;;;10.61;100.00;101316.09;4976432;28;20035;-86
2022/10/03 04:14:55;;;;;;;20.83;3.08;;;11.90;99.90;;;10.64;100.00;101315.97;4956435;28;20055;-84
2022/10/03 04:20:56;;;;;;;16.77;2.15;;;12.00;99.90;;;10.65;100.00;101321.19;4967474;28;20102;-86
2022/10/03 04:23:49;;;;;;;17.85;2.45;;;12.00;99.90;;;10.63;100.00;101323.00;4962309;28;20027;-87
2022/10/03 04:26:50;;;;;;;14.98;1.80;;;11.90;99.90;;;10.64;100.00;101331.75;4942516;28;20122;-84
2022/10/03 04:30:04;;;;;;;21.60;3.45;;;11.90;99.90;;;10.67;100.00;101326.41;4973264;28;20027;-85
2022/10/03 04:32:58;;;;;;;14.57;2.42;;;12.00;99.90;;;10.68;100.00;101330.75;4971364;28;20063;-86
2022/10/03 04:36:00;;;;;;;21.85;3.53;;;12.00;99.90;;;10.66;100.00;101332.56;4977747;28;20063;-85
2022/10/03 04:39:07;;;;;;;24.23;2.97;;;12.00;99.90;;;10.72;100.00;101334.13;4974721;28;20475;-87
2022/10/03 04:42:02;;;;;;;15.82;2.13;;;12.00;99.90;;;10.69;100.00;101337.75;4978965;28;20063;-85
2022/10/03 04:44:51;;;;;;;28.58;3.40;;;12.00;99.90;;;10.72;100.00;101340.25;4962535;28;20500;-86
2022/10/03 04:47:37;;;;;;;23.05;2.90;;;11.40;99.90;;;10.66;100.00;101338.69;4964191;28;20042;-83
2022/10/03 04:50:30;;;;;;;20.15;1.75;;;12.00;99.90;;;10.64;100.00;101345.78;4979996;28;20035;-86
2022/10/03 04:53:51;;;;;;;21.00;3.25;;;12.00;99.90;;;10.65;100.00;101342.25;4979169;28;20027;-85
2022/10/03 04:56:30;;;;;;;22.27;3.40;;;12.00;99.90;;;10.68;100.00;101352.66;4948442;28;20039;-87
2022/10/03 04:59:17;;;;;;;27.38;3.10;;;12.00;99.90;;;10.67;100.00;101343.06;4973986;28;20030;-86
2022/10/03 05:02:40;;;;;;;14.50;1.92;;;12.00;99.90;;;10.64;100.00;101352.84;4964633;28;20376;-83
2022/10/03 05:05:33;;;;;;;16.77;3.03;;;12.00;99.90;;;10.65;100.00;101358.06;4964695;28;20035;-87
2022/10/03 05:08:27;;;;;;;28.33;3.13;;;12.00;99.90;;;10.69;100.00;101358.81;4964125;28;20031;-87
2022/10/03 05:11:43;;;;;;;24.13;3.13;;;12.00;99.90;;;10.75;100.00;101366.47;4974435;28;20038;-86
2022/10/03 05:14:36;;;;;;;32.38;4.00;;;12.00;99.90;;;10.77;100.00;101363.78;4955947;28;20574;-88
2022/10/03 05:18:02;;;;;;;18.45;2.92;;;12.00;99.90;;;10.75;100.00;101374.34;4958468;28;20416;-86
2022/10/03 05:20:57;;;;;;;40.17;3.83;;;12.00;99.90;;;10.77;100.00;101369.91;4937293;28;20039;-87
2022/10/03 05:24:02;;;;;;;19.60;2.97;;;12.10;99.90;;;10.80;100.00;101380.34;4963576;28;20087;-87
2022/10/03 05:27:07;;;;;;;15.90;1.98;;;12.10;99.90;;;10.76;100.00;101381.38;4960307;28;20027;-87
2022/10/03 05:29:51;;;;;;;27.55;3.47;;;12.00;99.90;;;10.78;100.00;101374.25;4957441;28;20030;-87
2022/10/03 05:32:35;;;;;;;24.65;2.78;;;12.10;99.90;;;10.80;100.00;101380.34;4957253;29;20035;-85
2022/10/03 05:35:28;;;;;;;27.20;3.15;;;12.10;99.90;;;10.81;100.00;101383.81;4974803;28;20074;-85
2022/10/03 05:38:06;;;;;;;19.13;3.13;;;12.10;99.90;;;10.83;100.00;101389.91;4959251;28;20032;-86
2022/10/03 05:41:49;;;;;;;19.70;3.20;;;12.10;99.90;;;10.83;100.00;101396.03;4992550;23;20107;-88
2022/10/03 05:52:49;;;;;;;23.40;3.05;;;12.10;99.90;;;10.85;100.00;101399.47;4880279;29;20528;-86
2022/10/03 06:00:19;;;;;;;29.17;4.03;;;12.20;99.90;;;10.98;100.00;101404.28;4878694;29;20078;-87
2022/10/03 06:18:09;;;;;;;30.08;6.13;;;;;;;12.07;100.00;101426.38;4905257;29;20044;-88
2022/10/03 06:22:06;;;;;;;22.33;4.10;;;12.70;99.90;;;11.86;100.00;101433.38;4900867;29;20052;-87
2022/10/03 06:34:37;;;;;;;20.52;2.67;;;;;;;11.47;100.00;101441.97;4946384;28;20048;-87
2022/10/03 06:38:10;;;;;;;25.92;3.22;;;12.70;99.90;;;11.47;100.00;101450.72;4951723;29;20039;-87
2022/10/03 06:41:38;;;;;;;17.92;2.65;;;12.70;99.90;;;11.52;100.00;101452.31;4912749;29;20048;-87
2022/10/03 06:45:38;;;;;;;31.92;3.88;;;12.70;99.90;;;11.47;100.00;101455.13;4933577;29;20587;-88
2022/10/03 06:57:11;;;;;;;;;;;;;;;;;;;;;
2022/10/03 07:00:00;;;;;;;20.08;3.03;;;12.60;99.90;;;11.40;100.00;101475.63;4856188;29;20037;-86
2022/10/03 07:03:27;;;;;;;30.27;4.10;;;12.60;99.90;;;11.44;100.00;101471.91;4850639;29;20090;-87
2022/10/03 07:07:08;;;;;;;26.92;2.92;;;12.60;99.90;;;11.43;100.00;101478.13;4836237;29;20037;-87
2022/10/03 07:10:39;;;;;;;25.20;3.00;;;12.60;99.90;;;11.45;100.00;101484.19;4791147;29;20075;-87
2022/10/03 07:17:49;;;;;;;31.02;4.18;;;12.70;99.90;;;11.48;100.00;101488.50;4868705;29;20045;-87
2022/10/03 07:21:19;;;;;;;22.80;3.10;;;12.70;99.90;;;11.55;100.00;101489.97;4881489;29;20076;-87
2022/10/03 07:32:29;;;;;;;20.15;2.97;;;12.80;99.90;;;11.59;100.00;101504.75;4894739;29;20087;-88
2022/10/03 07:39:13;;;;;;;31.52;3.90;;;12.80;99.90;;;11.69;100.00;101514.03;4863184;29;20051;-87
2022/10/03 07:45:48;;;;;;;23.73;3.70;;;;;;;11.63;100.00;101524.81;4900424;29;20047;-86
2022/10/03 07:48:50;;;;;;;16.50;2.15;;;;;;;11.68;100.00;101522.91;4933845;29;20111;-87
2022/10/03 07:56:19;;;;;;;25.67;3.58;;;13.00;99.90;;;11.88;100.00;101534.47;4882973;29;20047;-86
2022/10/03 08:07:28;;;;;;;19.25;3.30;;;13.10;99.90;;;12.04;100.00;101532.94;4891459;29;20103;-87
2022/10/03 08:10:41;;;;;;;27.98;4.32;;;13.20;99.90;;;12.09;100.00;101541.56;5007141;23;20039;-87
2022/10/03 08:21:11;;;;;;;;;;;;;;;;;;;;;
2022/10/03 08:24:27;;;;;;;;;;;;;;;;;;;;;
2022/10/03 08:27:39;;;;;;;20.17;3.13;;;13.50;99.90;;;12.54;100.00;101566.13;4923370;29;20044;-87
2022/10/03 08:31:00;;;;;;;19.30;2.38;;;13.70;99.90;;;12.98;100.00;101560.75;5048520;23;20058;-88
2022/10/03 08:41:12;;;;;;;;;;;;;;;;;;;;;
2022/10/03 08:48:30;;;;;;;20.63;3.05;;;17.10;99.90;;;17.02;75.16;101565.66;4898297;29;20048;-87
2022/10/03 08:55:59;;;;;;;21.58;3.08;;;17.00;99.90;;;15.58;81.43;101572.88;5003077;28;20101;-87
2022/10/03 09:03:08;;;;;;;28.67;3.38;;;15.70;99.90;;;14.52;89.14;101581.00;4984983;28;20089;-86
2022/10/03 09:06:39;;;;;;;32.28;4.25;;;16.20;99.90;;;15.92;84.67;101578.19;4984016;28;20034;-86
2022/10/03 09:10:19;;;;;;;19.75;3.30;;;16.50;99.90;;;15.98;80.00;101577.81;5045126;23;20241;-87
2022/10/03 09:22:10;;;;;;;18.52;2.38;;;17.40;99.90;;;16.81;75.68;101583.75;4974740;28;20042;-85
2022/10/03 09:29:30;;;;;;;23.13;3.83;;;16.90;99.90;;;15.58;80.50;101599.44;4978654;28;20641;-86
2022/10/03 09:33:48;;;;;;;;;;;;;;;;;;;;;
2022/10/03 09:36:47;;;;;;;13.05;2.65;;;15.80;99.90;;;14.31;85.87;101597.94;4961373;28;20053;-85
2022/10/03 09:40:00;;;;;;;27.70;3.70;;;15.60;99.90;;;14.32;86.13;101597.03;4991488;28;20043;-84
2022/10/03 09:50:52;;;;;;;18.65;2.53;;;15.70;99.90;;;15.10;83.79;101605.53;5019218;23;20054;-87
2022/10/03 09:54:36;;;;;;;14.65;2.20;;;16.20;99.90;;;15.67;81.93;101592.75;4965645;28;20050;-85
2022/10/03 09:57:47;;;;;;;15.45;2.63;;;16.60;99.90;;;15.91;79.58;101595.91;4950809;28;20038;-86
2022/10/03 10:04:48;;;;;;;22.20;2.95;;;16.50;99.90;;;15.28;80.69;101598.41;4975981;28;20038;-83
2022/10/03 10:08:19;;;;;;;27.15;2.83;;;16.30;99.90;;;15.30;80.66;101600.03;4978981;28;20042;-86
2022/10/03 10:11:57;;;;;;;15.95;3.40;;;16.40;99.90;;;15.23;79.16;101600.47;4981829;23;20411;-86
2022/10/03 10:15:10;;;;;;;19.03;2.70;;;16.10;99.90;;;14.94;78.65;101597.50;4880242;29;20123;-83
2022/10/03 10:18:51;;;;;;;;;;;;;;;;;;;;;
2022/10/03 10:22:19;;;;;;;16.70;3.30;;;16.40;99.90;;;15.65;79.47;101601.75;4874842;29;20049;-83
2022/10/03 10:25:41;;;;;;;;;;;;;;;;;;;;;
2022/10/03 10:28:34;;;;;;;13.25;2.10;;;;;;;14.81;80.18;101605.22;4941160;28;20571;-83
2022/10/03 10:35:49;;;;;;;15.43;2.35;;;16.10;99.90;;;15.20;83.48;101612.06;4963581;28;20053;-82
2022/10/03 10:39:26;;;;;;;13.27;2.65;;;16.10;99.90;;;15.06;82.69;101606.63;4930717;28;20035;-84
2022/10/03 10:43:21;;;;;;;;;;;;;;;;;;;;;
2022/10/03 10:46:36;;;;;;;12.73;2.05;;;;;;;14.88;82.94;101614.59;4910415;29;20131;-84
2022/10/03 10:50:01;;;;;;;;;;;;;;;;;;;;;
2022/10/03 11:01:38;;;;;;;20.73;2.90;;;15.50;99.90;;;14.37;91.26;101602.94;4906197;29;20552;-85
2022/10/03 11:05:20;;;;;;;14.95;2.10;;;15.50;99.90;;;14.49;91.61;101604.13;4923382;28;20415;-83
2022/10/03 11:08:29;;;;;;;15.38;2.35;;;15.60;99.90;;;14.89;90.24;101604.84;4958445;28;20099;-83
2022/10/03 11:11:58;;;;;;;20.25;2.67;;;15.80;99.90;;;14.90;87.45;101610.06;4992190;23;20035;-86
2022/10/03 11:15:26;;;;;;;16.45;2.38;;;15.80;99.90;;;14.68;86.67;101609.41;4972734;28;20043;-84
2022/10/03 11:18:41;;;;;;;19.42;2.47;;;15.60;99.90;;;14.26;87.36;101605.25;4977740;28;20041;-83
2022/10/03 11:21:49;;;;;;;11.50;1.98;;;15.30;99.90;;;13.95;91.07;101610.22;4943619;29;20724;-84
2022/10/03 11:24:27;;;;;;;15.25;2.70;;;15.10;99.90;;;13.81;92.98;101609.13;4961190;28;20064;-84
2022/10/03 11:27:29;;;;;;;15.95;2.33;;;15.10;99.90;;;14.06;92.47;101611.47;4960491;28;20031;-83
2022/10/03 11:31:26;;;;;;;14.32;2.58;;;15.30;99.90;;;14.55;90.90;101603.84;5004312;23;20046;-85
2022/10/03 11:34:57;;;;;;;13.15;2.20;;;15.60;99.90;;;14.93;86.64;101609.91;4889182;29;20052;-83
2022/10/03 11:38:36;;;;;;;25.02;3.40;;;15.90;99.90;;;15.05;85.39;101605.75;4891666;29;20127;-84
2022/10/03 11:41:20;;;;;;;14.60;2.00;;;15.90;99.90;;;14.84;85.42;101597.13;4879664;29;20056;-83
2022/10/03 11:45:01;;;;;;;12.80;2.45;;;15.90;99.90;;;14.98;85.99;101597.25;4912845;29;20076;-84
2022/10/03 11:48:28;;;;;;;15.85;2.35;;;16.00;99.90;;;15.11;85.48;101592.19;4940251;29;20039;-84
2022/10/03 11:51:51;;;;;;;;;;;;;;;;;;;;;
2022/10/03 11:55:29;;;;;;;18.13;2.92;;;16.20;99.90;;;15.39;83.65;101598.69;4949468;28;20122;-84
2022/10/03 11:58:59;;;;;;;10.10;1.83;;;16.30;99.90;;;15.46;83.82;101593.91;4960775;28;20035;-85
2022/10/03 12:02:03;;;;;;;;;;;;;;;;;;;;;
2022/10/03 12:05:02;;;;;;;22.88;3.03;;;16.20;99.90;;;14.97;82.77;101598.19;4955900;28;20107;-84
2022/10/03 12:11:25;;;;;;;12.07;1.77;;;15.90;99.90;;;14.83;82.23;101606.00;4997593;23;20093;-83
2022/10/03 12:14:28;;;;;;;13.18;2.00;;;15.90;99.90;;;14.87;82.01;101607.56;4985225;28;20399;-81
2022/10/03 12:17:27;;;;;;;14.20;2.38;;;16.00;99.90;;;15.13;82.23;101608.03;4967491;28;20022;-84
2022/10/03 12:20:28;;;;;;;17.02;1.90;;;16.00;99.90;;;14.97;79.92;101598.19;4975516;28;20031;-85
2022/10/03 12:23:29;;;;;;;14.52;2.35;;;16.00;99.90;;;14.84;79.37;101601.53;4928127;28;20043;-84
2022/10/03 12:26:03;;;;;;;19.55;2.17;;;15.90;99.90;;;14.76;79.71;101604.59;4970554;28;20059;-82
2022/10/03 12:28:50;;;;;;;20.58;3.05;;;15.80;99.90;;;14.69;80.22;101608.50;4986149;28;20114;-82
2022/10/03 12:31:37;;;;;;;14.82;2.50;;;15.70;99.90;;;14.52;80.42;101611.94;4964188;28;20095;-82
2022/10/03 12:34:37;;;;;;;14.20;2.25;;;15.60;99.90;;;14.46;79.71;101615.72;4953056;28;20082;-84
2022/10/03 12:38:17;;;;;;;14.70;2.22;;;15.60;99.90;;;14.23;80.06;101608.88;4965888;28;20039;-83
2022/10/03 12:41:31;;;;;;;13.35;2.40;;;15.40;99.90;;;14.07;80.66;101611.41;4912079;29;20139;-81
2022/10/03 12:44:26;;;;;;;18.48;2.63;;;15.30;99.90;;;14.12;81.43;101617.38;4963241;23;22078;-81
2022/10/03 12:47:15;;;;;;;14.93;2.72;;;15.30;99.90;;;14.14;80.90;101617.28;4961941;28;20067;-83
2022/10/03 12:49:55;;;;;;;11.90;2.20;;;15.30;99.90;;;14.11;80.52;101620.09;4991253;28;20039;-80
2022/10/03 12:52:32;;;;;;;26.40;3.00;;;15.20;99.90;;;14.16;80.57;101621.56;4977049;28;20066;-81
2022/10/03 12:55:30;;;;;;;10.85;2.17;;;15.20;99.90;;;14.12;80.11;101622.66;4993297;28;20407;-83
2022/10/03 12:58:31;;;;;;;10.57;1.80;;;15.20;99.90;;;14.10;80.46;101627.19;4981983;28;20589;-81
2022/10/03 13:01:21;;;;;;;20.15;2.33;;;15.20;99.90;;;13.92;81.28;101623.59;4979435;28;20117;-81
2022/10/03 13:04:21;;;;;;;16.98;2.50;;;15.10;99.90;;;14.08;81.92;101626.41;4959303;28;20109;-82
2022/10/03 13:07:02;;;;;;;8.50;1.67;;;15.30;99.90;;;14.34;80.99;101624.28;4994191;28;20186;-83
2022/10/03 13:10:06;;;;;;;12.63;2.25;;;15.30;99.90;;;14.28;79.48;101619.28;4981007;28;20027;-79
2022/10/03 13:13:14;;;;;;;16.45;2.53;;;15.40;99.90;;;14.38;80.31;101622.34;4991959;28;20039;-82
2022/10/03 13:16:07;;;;;;;20.90;2.75;;;15.40;99.90;;;14.42;80.32;101630.06;4991095;28;20050;-81
2022/10/03 13:19:03;;;;;;;12.55;2.67;;;15.50;99.90;;;14.41;80.01;101631.00;4966222;28;20037;-82
2022/10/03 13:21:43;;;;;;;16.55;2.65;;;15.40;99.90;;;14.36;80.23;101638.31;4977637;28;20070;-84
2022/10/03 13:24:38;;;;;;;16.77;2.80;;;15.40;99.90;;;14.32;79.56;101623.50;4980637;28;20581;-82
2022/10/03 13:27:51;;;;;;;14.32;2.35;;;15.40;99.90;;;14.28;79.96;101635.19;4989109;28;20035;-80
2022/10/03 13:30:33;;;;;;;9.80;1.88;;;15.40;99.90;;;14.26;79.99;101631.75;4961955;28;20490;-81
2022/10/03 13:33:13;;;;;;;15.63;2.30;;;15.30;99.90;;;14.23;80.61;101623.94;4992739;28;20043;-81
2022/10/03 13:35:58;;;;;;;18.30;2.50;;;15.40;99.90;;;14.36;81.67;101630.34;4989435;28;20527;-80
2022/10/03 13:39:04;;;;;;;18.98;2.15;;;15.40;99.90;;;14.47;82.36;101635.13;4992556;28;20112;-83
2022/10/03 13:42:14;;;;;;;19.80;3.08;;;15.50;99.90;;;14.40;82.91;101634.56;4980516;28;20459;-82
2022/10/03 13:44:53;;;;;;;22.35;2.97;;;15.40;99.90;;;14.28;83.91;101624.59;4964439;28;20030;-82
2022/10/03 13:47:54;;;;;;;23.83;3.20;;;15.30;99.90;;;14.15;84.50;101624.31;4986486;28;20535;-82
2022/10/03 13:50:22;;;;;;;19.90;2.33;;;15.30;99.90;;;14.13;85.44;101624.38;4976713;28;20023;-82
2022/10/03 13:52:59;;;;;;;18.58;3.05;;;15.20;99.90;;;13.99;85.91;101624.16;4955424;28;20549;-81
2022/10/03 13:56:00;;;;;;;20.85;3.13;;;15.20;99.90;;;13.95;87.19;101623.47;4976288;28;20425;-84
2022/10/03 13:59:22;;;;;;;16.38;2.55;;;15.10;99.90;;;13.93;87.13;101624.44;4977808;28;20034;-82
2022/10/03 14:02:08;;;;;;;27.65;3.65;;;15.10;99.90;;;13.95;88.12;101620.81;4976291;28;20038;-82
2022/10/03 14:05:07;;;;;;;20.67;2.67;;;15.20;99.90;;;14.18;87.02;101623.31;4978500;28;20030;-81
2022/10/03 14:07:55;;;;;;;22.83;3.50;;;15.30;99.90;;;14.33;86.37;101626.06;4962365;28;20487;-84
2022/10/03 14:10:33;;;;;;;12.52;1.85;;;15.30;99.90;;;14.28;85.58;101614.84;4975234;28;20031;-82
2022/10/03 14:13:34;;;;;;;17.65;2.33;;;15.40;99.90;;;14.33;85.59;101611.97;4976546;28;20130;-81
2022/10/03 14:16:38;;;;;;;20.58;2.97;;;15.30;99.90;;;14.28;86.12;101606.03;4977713;28;20034;-84
2022/10/03 14:19:38;;;;;;;22.02;3.22;;;15.40;99.90;;;14.37;86.27;101605.59;4983157;28;20396;-82
2022/10/03 14:22:49;;;;;;;24.70;3.08;;;15.50;99.90;;;14.60;85.63;101603.63;4991771;28;20045;-81
2022/10/03 14:25:41;;;;;;;21.08;2.83;;;15.70;99.90;;;14.93;83.97;101599.28;4987901;28;20450;-81
2022/10/03 14:28:16;;;;;;;18.60;2.58;;;15.90;99.90;;;15.10;81.28;101603.75;4961159;28;20039;-83
2022/10/03 14:31:05;;;;;;;15.02;2.95;;;16.00;99.90;;;15.13;79.04;101606.22;4979721;28;20022;-81
2022/10/03 14:33:40;;;;;;;12.95;2.00;;;16.20;99.90;;;15.18;79.60;101606.84;4982685;28;20027;-81
2022/10/03 14:37:13;;;;;;;17.65;2.53;;;16.20;99.90;;;15.14;79.03;101607.94;4980088;28;20023;-82
2022/10/03 14:40:40;;;;;;;15.07;2.50;;;16.20;99.90;;;15.18;79.53;101604.19;4977111;28;20049;-81
2022/10/03 14:43:48;;;;;;;21.17;2.42;;;16.20;99.90;;;15.17;80.32;101612.22;4979343;28;20403;-84
2022/10/03 14:46:20;;;;;;;27.52;4.00;;;16.20;99.90;;;15.18;81.03;101605.97;4979832;28;20042;-82
2022/10/03 14:48:51;;;;;;;23.00;3.40;;;16.30;99.90;;;15.31;81.61;101604.41;4977791;28;20026;-84
2022/10/03 14:51:31;;;;;;;23.38;3.90;;;16.30;99.90;;;15.44;81.44;101595.78;4974083;28;20114;-82
2022/10/03 14:54:04;;;;;;;27.73;3.55;;;16.30;99.90;;;15.13;81.30;101600.06;4977417;28;20369;-81
2022/10/03 14:56:51;;;;;;;27.95;3.83;;;16.10;99.90;;;15.00;83.12;101593.69;4983751;28;20034;-84
2022/10/03 14:59:35;;;;;;;22.52;3.33;;;16.00;99.90;;;14.84;84.84;101602.41;4965058;28;20022;-85
2022/10/03 15:02:37;;;;;;;31.00;4.55;;;15.90;99.90;;;14.75;84.38;101603.75;4959570;28;20131;-82
2022/10/03 15:05:31;;;;;;;16.55;2.63;;;15.70;99.90;;;14.34;84.00;101593.34;4976336;28;20101;-83
2022/10/03 15:07:57;;;;;;;20.88;2.42;;;15.60;99.90;;;14.23;83.90;101597.44;4987868;28;20086;-81
2022/10/03 15:10:26;;;;;;;18.10;2.65;;;15.50;99.90;;;14.20;83.83;101594.97;4960631;28;20089;-84
2022/10/03 15:13:01;;;;;;;25.70;3.50;;;15.40;99.90;;;14.04;82.84;101595.69;4971815;28;20514;-80
2022/10/03 15:15:40;;;;;;;19.35;3.17;;;15.30;99.90;;;14.00;82.87;101596.75;4972680;28;20023;-83
2022/10/03 15:18:19;;;;;;;30.58;3.97;;;15.20;99.90;;;13.98;83.90;101603.91;4976647;28;20078;-82
2022/10/03 15:20:47;;;;;;;16.48;2.92;;;15.10;99.90;;;13.84;82.61;101598.41;4955025;28;20018;-79